sensor_id;sensor_type;location;lat;lon;timestamp;P1;durP1;ratioP1;P2;durP2;ratioP2
12603;SDS011;6367;52.508;13.284;2024-01-10T00:00:39;55.43;;;33.30;;
12603;SDS011;6367;52.508;13.284;2024-01-10T00:03:07;62.22;;;33.28;;
12603;SDS011;6367;52.508;13.284;2024-01-10T00:05:33;55.70;;;31.90;;
12603;SDS011;6367;52.508;13.284;2024-01-10T00:07:58;59.57;;;33.60;;
12603;SDS011;6367;52.508;13.284;2024-01-10T00:10:24;64.00;;;35.13;;
12603;SDS011;6367;52.508;13.284;2024-01-10T00:12:50;58.63;;;32.77;;
12603;SDS011;6367;52.508;13.284;2024-01-10T00:15:15;58.90;;;33.60;;
12603;SDS011;6367;52.508;13.284;2024-01-10T00:17:41;59.20;;;33.00;;
12603;SDS011;6367;52.508;13.284;2024-01-10T00:20:07;59.10;;;32.07;;
12603;SDS011;6367;52.508;13.284;2024-01-10T00:22:33;57.38;;;31.85;;
12603;SDS011;6367;52.508;13.284;2024-01-10T00:24:58;63.10;;;34.33;;
12603;SDS011;6367;52.508;13.284;2024-01-10T00:27:24;56.23;;;32.27;;
12603;SDS011;6367;52.508;13.284;2024-01-10T00:29:50;60.43;;;34.47;;
12603;SDS011;6367;52.508;13.284;2024-01-10T00:32:20;58.33;;;32.85;;
12603;SDS011;6367;52.508;13.284;2024-01-10T00:34:46;66.60;;;36.43;;
12603;SDS011;6367;52.508;13.284;2024-01-10T00:37:11;56.63;;;32.37;;
12603;SDS011;6367;52.508;13.284;2024-01-10T00:39:37;58.50;;;31.03;;
12603;SDS011;6367;52.508;13.284;2024-01-10T00:42:03;58.93;;;35.07;;
12603;SDS011;6367;52.508;13.284;2024-01-10T00:44:28;57.77;;;33.10;;
12603;SDS011;6367;52.508;13.284;2024-01-10T00:46:54;55.57;;;33.03;;
12603;SDS011;6367;52.508;13.284;2024-01-10T00:49:20;62.60;;;31.83;;
12603;SDS011;6367;52.508;13.284;2024-01-10T00:51:45;58.13;;;34.17;;
12603;SDS011;6367;52.508;13.284;2024-01-10T00:54:11;60.60;;;32.10;;
12603;SDS011;6367;52.508;13.284;2024-01-10T00:56:37;58.43;;;32.93;;
12603;SDS011;6367;52.508;13.284;2024-01-10T00:59:03;62.57;;;33.10;;
12603;SDS011;6367;52.508;13.284;2024-01-10T01:01:28;55.83;;;30.73;;
12603;SDS011;6367;52.508;13.284;2024-01-10T01:03:54;58.05;;;31.35;;
12603;SDS011;6367;52.508;13.284;2024-01-10T01:06:20;62.60;;;34.30;;
12603;SDS011;6367;52.508;13.284;2024-01-10T01:08:46;57.60;;;33.33;;
12603;SDS011;6367;52.508;13.284;2024-01-10T01:11:11;58.40;;;32.00;;
12603;SDS011;6367;52.508;13.284;2024-01-10T01:13:39;56.38;;;31.98;;
12603;SDS011;6367;52.508;13.284;2024-01-10T01:16:05;60.10;;;31.20;;
12603;SDS011;6367;52.508;13.284;2024-01-10T01:18:30;61.87;;;32.40;;
12603;SDS011;6367;52.508;13.284;2024-01-10T01:20:56;61.10;;;33.10;;
12603;SDS011;6367;52.508;13.284;2024-01-10T01:23:22;53.13;;;32.90;;
12603;SDS011;6367;52.508;13.284;2024-01-10T01:25:47;61.50;;;33.60;;
12603;SDS011;6367;52.508;13.284;2024-01-10T01:28:13;55.00;;;30.87;;
12603;SDS011;6367;52.508;13.284;2024-01-10T01:30:38;50.40;;;29.33;;
12603;SDS011;6367;52.508;13.284;2024-01-10T01:33:04;56.57;;;29.80;;
12603;SDS011;6367;52.508;13.284;2024-01-10T01:35:30;60.67;;;32.43;;
12603;SDS011;6367;52.508;13.284;2024-01-10T01:37:56;56.03;;;31.50;;
12603;SDS011;6367;52.508;13.284;2024-01-10T01:40:21;47.17;;;28.53;;
12603;SDS011;6367;52.508;13.284;2024-01-10T01:42:47;45.67;;;29.57;;
12603;SDS011;6367;52.508;13.284;2024-01-10T01:45:13;54.40;;;31.07;;
12603;SDS011;6367;52.508;13.284;2024-01-10T01:47:39;56.00;;;30.63;;
12603;SDS011;6367;52.508;13.284;2024-01-10T01:50:06;58.85;;;30.05;;
12603;SDS011;6367;52.508;13.284;2024-01-10T01:52:32;57.90;;;30.40;;
12603;SDS011;6367;52.508;13.284;2024-01-10T01:54:59;50.10;;;28.75;;
12603;SDS011;6367;52.508;13.284;2024-01-10T01:57:26;50.42;;;28.40;;
12603;SDS011;6367;52.508;13.284;2024-01-10T01:59:52;51.33;;;28.50;;
12603;SDS011;6367;52.508;13.284;2024-01-10T02:02:17;49.60;;;26.73;;
12603;SDS011;6367;52.508;13.284;2024-01-10T02:04:45;49.22;;;28.38;;
12603;SDS011;6367;52.508;13.284;2024-01-10T02:07:11;52.17;;;27.90;;
12603;SDS011;6367;52.508;13.284;2024-01-10T02:09:37;45.77;;;26.17;;
12603;SDS011;6367;52.508;13.284;2024-01-10T02:12:03;47.47;;;27.50;;
12603;SDS011;6367;52.508;13.284;2024-01-10T02:14:29;46.30;;;26.50;;
12603;SDS011;6367;52.508;13.284;2024-01-10T02:16:55;48.50;;;27.53;;
12603;SDS011;6367;52.508;13.284;2024-01-10T02:19:22;53.07;;;28.90;;
12603;SDS011;6367;52.508;13.284;2024-01-10T02:21:48;48.75;;;27.42;;
12603;SDS011;6367;52.508;13.284;2024-01-10T02:24:14;48.30;;;28.57;;
12603;SDS011;6367;52.508;13.284;2024-01-10T02:26:40;53.60;;;32.07;;
12603;SDS011;6367;52.508;13.284;2024-01-10T02:29:06;52.00;;;29.33;;
12603;SDS011;6367;52.508;13.284;2024-01-10T02:31:32;47.33;;;27.33;;
12603;SDS011;6367;52.508;13.284;2024-01-10T02:33:58;55.57;;;29.70;;
12603;SDS011;6367;52.508;13.284;2024-01-10T02:36:24;52.07;;;29.50;;
12603;SDS011;6367;52.508;13.284;2024-01-10T02:38:49;47.47;;;28.70;;
12603;SDS011;6367;52.508;13.284;2024-01-10T02:41:15;50.63;;;29.87;;
12603;SDS011;6367;52.508;13.284;2024-01-10T02:43:41;54.53;;;29.80;;
12603;SDS011;6367;52.508;13.284;2024-01-10T02:46:06;45.70;;;27.77;;
12603;SDS011;6367;52.508;13.284;2024-01-10T02:48:32;53.00;;;29.70;;
12603;SDS011;6367;52.508;13.284;2024-01-10T02:50:58;54.87;;;31.17;;
12603;SDS011;6367;52.508;13.284;2024-01-10T02:53:23;53.00;;;28.83;;
12603;SDS011;6367;52.508;13.284;2024-01-10T02:55:49;50.33;;;29.93;;
12603;SDS011;6367;52.508;13.284;2024-01-10T02:58:15;52.75;;;29.25;;
12603;SDS011;6367;52.508;13.284;2024-01-10T03:00:41;55.70;;;29.17;;
12603;SDS011;6367;52.508;13.284;2024-01-10T03:03:07;55.37;;;30.33;;
12603;SDS011;6367;52.508;13.284;2024-01-10T03:05:32;55.30;;;30.50;;
12603;SDS011;6367;52.508;13.284;2024-01-10T03:07:58;51.90;;;29.53;;
12603;SDS011;6367;52.508;13.284;2024-01-10T03:10:23;55.83;;;29.17;;
12603;SDS011;6367;52.508;13.284;2024-01-10T03:12:49;54.13;;;30.00;;
12603;SDS011;6367;52.508;13.284;2024-01-10T03:15:15;59.30;;;31.30;;
12603;SDS011;6367;52.508;13.284;2024-01-10T03:17:40;54.10;;;31.20;;
12603;SDS011;6367;52.508;13.284;2024-01-10T03:20:06;57.33;;;28.40;;
12603;SDS011;6367;52.508;13.284;2024-01-10T03:22:33;53.40;;;30.80;;
12603;SDS011;6367;52.508;13.284;2024-01-10T03:24:59;54.15;;;26.58;;
12603;SDS011;6367;52.508;13.284;2024-01-10T03:27:25;45.20;;;27.27;;
12603;SDS011;6367;52.508;13.284;2024-01-10T03:29:51;55.77;;;28.43;;
12603;SDS011;6367;52.508;13.284;2024-01-10T03:32:17;54.20;;;31.10;;
12603;SDS011;6367;52.508;13.284;2024-01-10T03:34:42;49.67;;;28.03;;
12603;SDS011;6367;52.508;13.284;2024-01-10T03:37:08;45.87;;;26.33;;
12603;SDS011;6367;52.508;13.284;2024-01-10T03:39:34;46.00;;;26.30;;
12603;SDS011;6367;52.508;13.284;2024-01-10T03:41:59;56.50;;;29.03;;
12603;SDS011;6367;52.508;13.284;2024-01-10T03:44:26;47.17;;;26.77;;
12603;SDS011;6367;52.508;13.284;2024-01-10T03:46:52;48.92;;;27.25;;
12603;SDS011;6367;52.508;13.284;2024-01-10T03:49:17;49.17;;;27.83;;
12603;SDS011;6367;52.508;13.284;2024-01-10T03:51:43;48.77;;;27.03;;
12603;SDS011;6367;52.508;13.284;2024-01-10T03:54:09;51.80;;;30.50;;
12603;SDS011;6367;52.508;13.284;2024-01-10T03:56:34;52.00;;;27.90;;
12603;SDS011;6367;52.508;13.284;2024-01-10T03:59:00;53.80;;;29.07;;
12603;SDS011;6367;52.508;13.284;2024-01-10T04:01:26;60.63;;;29.45;;
12603;SDS011;6367;52.508;13.284;2024-01-10T04:03:52;44.83;;;26.80;;
12603;SDS011;6367;52.508;13.284;2024-01-10T04:06:17;54.03;;;26.93;;
12603;SDS011;6367;52.508;13.284;2024-01-10T04:08:43;55.77;;;29.53;;
12603;SDS011;6367;52.508;13.284;2024-01-10T04:11:09;50.70;;;28.53;;
12603;SDS011;6367;52.508;13.284;2024-01-10T04:13:34;51.23;;;27.97;;
12603;SDS011;6367;52.508;13.284;2024-01-10T04:16:00;48.53;;;26.53;;
12603;SDS011;6367;52.508;13.284;2024-01-10T04:18:26;49.30;;;27.30;;
12603;SDS011;6367;52.508;13.284;2024-01-10T04:20:51;57.20;;;28.63;;
12603;SDS011;6367;52.508;13.284;2024-01-10T04:23:17;51.77;;;28.00;;
12603;SDS011;6367;52.508;13.284;2024-01-10T04:25:43;48.47;;;26.60;;
12603;SDS011;6367;52.508;13.284;2024-01-10T04:28:08;49.70;;;27.10;;
12603;SDS011;6367;52.508;13.284;2024-01-10T04:30:34;53.23;;;27.77;;
12603;SDS011;6367;52.508;13.284;2024-01-10T04:32:59;47.47;;;25.67;;
12603;SDS011;6367;52.508;13.284;2024-01-10T04:35:25;47.10;;;28.33;;
12603;SDS011;6367;52.508;13.284;2024-01-10T04:37:51;45.27;;;27.73;;
12603;SDS011;6367;52.508;13.284;2024-01-10T04:40:16;52.13;;;29.20;;
12603;SDS011;6367;52.508;13.284;2024-01-10T04:42:42;46.67;;;27.73;;
12603;SDS011;6367;52.508;13.284;2024-01-10T04:45:09;48.67;;;28.00;;
12603;SDS011;6367;52.508;13.284;2024-01-10T04:47:35;53.77;;;28.67;;
12603;SDS011;6367;52.508;13.284;2024-01-10T04:50:00;51.80;;;29.97;;
12603;SDS011;6367;52.508;13.284;2024-01-10T04:52:26;49.43;;;29.50;;
12603;SDS011;6367;52.508;13.284;2024-01-10T04:54:52;55.63;;;29.77;;
12603;SDS011;6367;52.508;13.284;2024-01-10T04:57:17;54.10;;;28.13;;
12603;SDS011;6367;52.508;13.284;2024-01-10T04:59:43;47.80;;;28.10;;
12603;SDS011;6367;52.508;13.284;2024-01-10T05:02:08;49.97;;;29.40;;
12603;SDS011;6367;52.508;13.284;2024-01-10T05:04:35;50.85;;;27.08;;
12603;SDS011;6367;52.508;13.284;2024-01-10T05:07:00;57.47;;;30.87;;
12603;SDS011;6367;52.508;13.284;2024-01-10T05:09:26;55.13;;;29.83;;
12603;SDS011;6367;52.508;13.284;2024-01-10T05:11:52;52.80;;;27.90;;
12603;SDS011;6367;52.508;13.284;2024-01-10T05:14:18;47.90;;;29.55;;
12603;SDS011;6367;52.508;13.284;2024-01-10T05:16:46;49.97;;;28.30;;
12603;SDS011;6367;52.508;13.284;2024-01-10T05:19:15;53.40;;;30.52;;
12603;SDS011;6367;52.508;13.284;2024-01-10T05:21:41;48.97;;;27.40;;
12603;SDS011;6367;52.508;13.284;2024-01-10T05:24:06;55.97;;;32.33;;
12603;SDS011;6367;52.508;13.284;2024-01-10T05:26:32;55.07;;;28.10;;
12603;SDS011;6367;52.508;13.284;2024-01-10T05:28:58;51.97;;;30.43;;
12603;SDS011;6367;52.508;13.284;2024-01-10T05:31:23;58.80;;;31.97;;
12603;SDS011;6367;52.508;13.284;2024-01-10T05:33:49;50.00;;;26.70;;
12603;SDS011;6367;52.508;13.284;2024-01-10T05:36:15;55.77;;;30.07;;
12603;SDS011;6367;52.508;13.284;2024-01-10T05:38:40;58.33;;;29.67;;
12603;SDS011;6367;52.508;13.284;2024-01-10T05:41:06;56.57;;;30.30;;
12603;SDS011;6367;52.508;13.284;2024-01-10T05:43:32;55.23;;;29.60;;
12603;SDS011;6367;52.508;13.284;2024-01-10T05:45:57;54.57;;;29.70;;
12603;SDS011;6367;52.508;13.284;2024-01-10T05:48:24;54.88;;;29.45;;
12603;SDS011;6367;52.508;13.284;2024-01-10T05:50:49;50.60;;;28.40;;
12603;SDS011;6367;52.508;13.284;2024-01-10T05:53:16;55.60;;;29.65;;
12603;SDS011;6367;52.508;13.284;2024-01-10T05:55:42;56.43;;;31.37;;
12603;SDS011;6367;52.508;13.284;2024-01-10T05:58:09;53.25;;;30.38;;
12603;SDS011;6367;52.508;13.284;2024-01-10T06:00:35;48.63;;;28.48;;
12603;SDS011;6367;52.508;13.284;2024-01-10T06:03:01;53.70;;;30.90;;
12603;SDS011;6367;52.508;13.284;2024-01-10T06:05:26;65.63;;;31.80;;
12603;SDS011;6367;52.508;13.284;2024-01-10T06:07:52;56.77;;;29.30;;
12603;SDS011;6367;52.508;13.284;2024-01-10T06:10:17;52.10;;;30.57;;
12603;SDS011;6367;52.508;13.284;2024-01-10T06:12:43;63.00;;;31.57;;
12603;SDS011;6367;52.508;13.284;2024-01-10T06:15:09;60.40;;;29.33;;
12603;SDS011;6367;52.508;13.284;2024-01-10T06:17:35;54.87;;;29.67;;
12603;SDS011;6367;52.508;13.284;2024-01-10T06:20:00;48.70;;;29.70;;
12603;SDS011;6367;52.508;13.284;2024-01-10T06:22:28;51.20;;;29.58;;
12603;SDS011;6367;52.508;13.284;2024-01-10T06:24:53;53.87;;;30.47;;
12603;SDS011;6367;52.508;13.284;2024-01-10T06:27:19;52.67;;;30.37;;
12603;SDS011;6367;52.508;13.284;2024-01-10T06:29:45;52.00;;;29.33;;
12603;SDS011;6367;52.508;13.284;2024-01-10T06:32:10;46.90;;;27.53;;
12603;SDS011;6367;52.508;13.284;2024-01-10T06:34:36;48.50;;;27.67;;
12603;SDS011;6367;52.508;13.284;2024-01-10T06:37:02;54.90;;;28.90;;
12603;SDS011;6367;52.508;13.284;2024-01-10T06:39:28;53.90;;;31.65;;
12603;SDS011;6367;52.508;13.284;2024-01-10T06:41:54;53.20;;;29.33;;
12603;SDS011;6367;52.508;13.284;2024-01-10T06:44:20;49.78;;;29.15;;
12603;SDS011;6367;52.508;13.284;2024-01-10T06:46:46;50.63;;;28.30;;
12603;SDS011;6367;52.508;13.284;2024-01-10T06:49:11;53.57;;;29.47;;
12603;SDS011;6367;52.508;13.284;2024-01-10T06:51:37;48.20;;;28.40;;
12603;SDS011;6367;52.508;13.284;2024-01-10T06:54:03;59.13;;;31.80;;
12603;SDS011;6367;52.508;13.284;2024-01-10T06:56:32;54.10;;;28.48;;
12603;SDS011;6367;52.508;13.284;2024-01-10T06:58:59;53.35;;;29.70;;
12603;SDS011;6367;52.508;13.284;2024-01-10T07:01:25;54.58;;;31.23;;
12603;SDS011;6367;52.508;13.284;2024-01-10T07:03:54;59.42;;;29.35;;
12603;SDS011;6367;52.508;13.284;2024-01-10T07:06:21;54.33;;;28.60;;
12603;SDS011;6367;52.508;13.284;2024-01-10T07:08:47;53.17;;;28.60;;
12603;SDS011;6367;52.508;13.284;2024-01-10T07:11:14;53.50;;;29.65;;
12603;SDS011;6367;52.508;13.284;2024-01-10T07:13:44;52.78;;;29.35;;
12603;SDS011;6367;52.508;13.284;2024-01-10T07:16:10;58.43;;;30.50;;
12603;SDS011;6367;52.508;13.284;2024-01-10T07:18:36;48.77;;;29.40;;
12603;SDS011;6367;52.508;13.284;2024-01-10T07:21:02;46.03;;;28.20;;
12603;SDS011;6367;52.508;13.284;2024-01-10T07:23:28;51.67;;;28.57;;
12603;SDS011;6367;52.508;13.284;2024-01-10T07:25:53;58.63;;;30.50;;
12603;SDS011;6367;52.508;13.284;2024-01-10T07:28:19;59.03;;;30.97;;
12603;SDS011;6367;52.508;13.284;2024-01-10T07:30:45;52.67;;;29.80;;
12603;SDS011;6367;52.508;13.284;2024-01-10T07:33:11;51.50;;;30.00;;
12603;SDS011;6367;52.508;13.284;2024-01-10T07:35:37;53.13;;;28.63;;
12603;SDS011;6367;52.508;13.284;2024-01-10T07:38:04;60.92;;;31.15;;
12603;SDS011;6367;52.508;13.284;2024-01-10T07:40:33;54.03;;;31.63;;
12603;SDS011;6367;52.508;13.284;2024-01-10T07:42:59;51.33;;;28.95;;
12603;SDS011;6367;52.508;13.284;2024-01-10T07:45:25;58.00;;;30.57;;
12603;SDS011;6367;52.508;13.284;2024-01-10T07:47:51;55.63;;;29.50;;
12603;SDS011;6367;52.508;13.284;2024-01-10T07:50:16;50.50;;;28.70;;
12603;SDS011;6367;52.508;13.284;2024-01-10T07:52:44;59.27;;;31.87;;
12603;SDS011;6367;52.508;13.284;2024-01-10T07:55:11;57.60;;;30.40;;
12603;SDS011;6367;52.508;13.284;2024-01-10T07:57:36;58.77;;;33.10;;
12603;SDS011;6367;52.508;13.284;2024-01-10T08:00:03;60.75;;;32.90;;
12603;SDS011;6367;52.508;13.284;2024-01-10T08:02:30;57.35;;;31.00;;
12603;SDS011;6367;52.508;13.284;2024-01-10T08:04:59;51.95;;;30.20;;
12603;SDS011;6367;52.508;13.284;2024-01-10T08:07:33;54.78;;;29.58;;
12603;SDS011;6367;52.508;13.284;2024-01-10T08:10:02;59.80;;;29.30;;
12603;SDS011;6367;52.508;13.284;2024-01-10T08:12:29;58.55;;;30.77;;
12603;SDS011;6367;52.508;13.284;2024-01-10T08:14:55;50.67;;;29.43;;
12603;SDS011;6367;52.508;13.284;2024-01-10T08:17:20;49.50;;;28.23;;
12603;SDS011;6367;52.508;13.284;2024-01-10T08:19:46;56.80;;;28.97;;
12603;SDS011;6367;52.508;13.284;2024-01-10T08:22:12;51.50;;;29.90;;
12603;SDS011;6367;52.508;13.284;2024-01-10T08:24:38;51.00;;;27.80;;
12603;SDS011;6367;52.508;13.284;2024-01-10T08:27:04;53.20;;;30.93;;
12603;SDS011;6367;52.508;13.284;2024-01-10T08:29:29;50.70;;;28.27;;
12603;SDS011;6367;52.508;13.284;2024-01-10T08:31:56;63.05;;;32.25;;
12603;SDS011;6367;52.508;13.284;2024-01-10T08:34:22;53.53;;;30.27;;
12603;SDS011;6367;52.508;13.284;2024-01-10T08:36:48;57.50;;;30.65;;
12603;SDS011;6367;52.508;13.284;2024-01-10T08:39:17;54.42;;;30.80;;
12603;SDS011;6367;52.508;13.284;2024-01-10T08:41:42;53.63;;;28.20;;
12603;SDS011;6367;52.508;13.284;2024-01-10T08:44:12;48.97;;;27.30;;
12603;SDS011;6367;52.508;13.284;2024-01-10T08:46:37;51.63;;;28.90;;
12603;SDS011;6367;52.508;13.284;2024-01-10T08:49:03;49.43;;;28.17;;
12603;SDS011;6367;52.508;13.284;2024-01-10T08:51:29;47.57;;;27.77;;
12603;SDS011;6367;52.508;13.284;2024-01-10T08:53:56;52.00;;;29.58;;
12603;SDS011;6367;52.508;13.284;2024-01-10T08:56:22;53.67;;;29.27;;
12603;SDS011;6367;52.508;13.284;2024-01-10T08:58:49;56.03;;;28.92;;
12603;SDS011;6367;52.508;13.284;2024-01-10T09:01:14;54.70;;;29.97;;
12603;SDS011;6367;52.508;13.284;2024-01-10T09:03:40;52.43;;;29.73;;
12603;SDS011;6367;52.508;13.284;2024-01-10T09:06:06;49.27;;;28.00;;
12603;SDS011;6367;52.508;13.284;2024-01-10T09:08:33;57.17;;;31.08;;
12603;SDS011;6367;52.508;13.284;2024-01-10T09:10:59;58.25;;;32.60;;
12603;SDS011;6367;52.508;13.284;2024-01-10T09:13:24;51.23;;;27.70;;
12603;SDS011;6367;52.508;13.284;2024-01-10T09:15:50;50.57;;;28.17;;
12603;SDS011;6367;52.508;13.284;2024-01-10T09:18:16;55.20;;;31.77;;
12603;SDS011;6367;52.508;13.284;2024-01-10T09:20:41;49.67;;;30.00;;
12603;SDS011;6367;52.508;13.284;2024-01-10T09:23:07;55.20;;;32.43;;
12603;SDS011;6367;52.508;13.284;2024-01-10T09:25:32;50.60;;;28.90;;
12603;SDS011;6367;52.508;13.284;2024-01-10T09:27:58;51.90;;;29.53;;
12603;SDS011;6367;52.508;13.284;2024-01-10T09:30:24;50.63;;;29.63;;
12603;SDS011;6367;52.508;13.284;2024-01-10T09:32:49;52.23;;;29.03;;
12603;SDS011;6367;52.508;13.284;2024-01-10T09:35:15;51.10;;;29.00;;
12603;SDS011;6367;52.508;13.284;2024-01-10T09:37:41;55.00;;;29.10;;
12603;SDS011;6367;52.508;13.284;2024-01-10T09:40:07;51.60;;;29.67;;
12603;SDS011;6367;52.508;13.284;2024-01-10T09:42:33;41.83;;;25.38;;
12603;SDS011;6367;52.508;13.284;2024-01-10T09:45:00;46.47;;;26.30;;
12603;SDS011;6367;52.508;13.284;2024-01-10T09:47:28;39.63;;;23.15;;
12603;SDS011;6367;52.508;13.284;2024-01-10T09:49:56;48.28;;;25.85;;
12603;SDS011;6367;52.508;13.284;2024-01-10T09:52:26;40.95;;;23.13;;
12603;SDS011;6367;52.508;13.284;2024-01-10T09:54:57;46.92;;;24.42;;
12603;SDS011;6367;52.508;13.284;2024-01-10T09:57:23;46.80;;;27.08;;
12603;SDS011;6367;52.508;13.284;2024-01-10T09:59:50;47.55;;;25.40;;
12603;SDS011;6367;52.508;13.284;2024-01-10T10:02:16;47.25;;;26.77;;
12603;SDS011;6367;52.508;13.284;2024-01-10T10:04:49;45.78;;;25.00;;
12603;SDS011;6367;52.508;13.284;2024-01-10T10:07:18;44.90;;;26.88;;
12603;SDS011;6367;52.508;13.284;2024-01-10T10:09:43;42.70;;;24.90;;
12603;SDS011;6367;52.508;13.284;2024-01-10T10:12:09;47.57;;;26.00;;
12603;SDS011;6367;52.508;13.284;2024-01-10T10:14:34;45.40;;;25.10;;
12603;SDS011;6367;52.508;13.284;2024-01-10T10:17:13;55.10;;;25.70;;
12603;SDS011;6367;52.508;13.284;2024-01-10T10:19:42;42.28;;;22.77;;
12603;SDS011;6367;52.508;13.284;2024-01-10T10:22:09;42.20;;;23.55;;
12603;SDS011;6367;52.508;13.284;2024-01-10T10:24:35;40.03;;;22.85;;
12603;SDS011;6367;52.508;13.284;2024-01-10T10:27:01;34.80;;;21.48;;
12603;SDS011;6367;52.508;13.284;2024-01-10T10:29:32;34.95;;;22.63;;
12603;SDS011;6367;52.508;13.284;2024-01-10T10:31:58;40.80;;;23.73;;
12603;SDS011;6367;52.508;13.284;2024-01-10T10:34:30;43.35;;;24.17;;
12603;SDS011;6367;52.508;13.284;2024-01-10T10:36:57;38.67;;;23.02;;
12603;SDS011;6367;52.508;13.284;2024-01-10T10:39:23;40.00;;;21.93;;
12603;SDS011;6367;52.508;13.284;2024-01-10T10:41:50;42.28;;;22.70;;
12603;SDS011;6367;52.508;13.284;2024-01-10T10:44:18;37.42;;;23.38;;
12603;SDS011;6367;52.508;13.284;2024-01-10T10:46:49;39.20;;;23.98;;
12603;SDS011;6367;52.508;13.284;2024-01-10T10:49:17;38.92;;;21.77;;
12603;SDS011;6367;52.508;13.284;2024-01-10T10:51:48;40.70;;;22.52;;
12603;SDS011;6367;52.508;13.284;2024-01-10T10:54:16;34.92;;;20.42;;
12603;SDS011;6367;52.508;13.284;2024-01-10T10:56:43;33.55;;;19.23;;
12603;SDS011;6367;52.508;13.284;2024-01-10T10:59:09;37.72;;;20.00;;
12603;SDS011;6367;52.508;13.284;2024-01-10T11:01:37;32.47;;;20.48;;
12603;SDS011;6367;52.508;13.284;2024-01-10T11:04:05;35.80;;;21.17;;
12603;SDS011;6367;52.508;13.284;2024-01-10T11:06:31;36.07;;;21.93;;
12603;SDS011;6367;52.508;13.284;2024-01-10T11:09:02;36.95;;;21.10;;
12603;SDS011;6367;52.508;13.284;2024-01-10T11:11:44;43.60;;;24.52;;
12603;SDS011;6367;52.508;13.284;2024-01-10T11:14:42;38.67;;;21.95;;
12603;SDS011;6367;52.508;13.284;2024-01-10T11:20:18;40.20;;;21.98;;
12603;SDS011;6367;52.508;13.284;2024-01-10T11:25:34;35.97;;;20.15;;
12603;SDS011;6367;52.508;13.284;2024-01-10T11:28:04;36.03;;;21.57;;
12603;SDS011;6367;52.508;13.284;2024-01-10T11:30:33;40.60;;;21.60;;
12603;SDS011;6367;52.508;13.284;2024-01-10T11:36:19;38.33;;;20.85;;
12603;SDS011;6367;52.508;13.284;2024-01-10T11:38:39;36.33;;;21.25;;
12603;SDS011;6367;52.508;13.284;2024-01-10T11:41:06;32.17;;;20.07;;
12603;SDS011;6367;52.508;13.284;2024-01-10T11:43:33;32.63;;;20.63;;
12603;SDS011;6367;52.508;13.284;2024-01-10T11:45:59;31.37;;;19.70;;
12603;SDS011;6367;52.508;13.284;2024-01-10T11:48:31;36.17;;;21.87;;
12603;SDS011;6367;52.508;13.284;2024-01-10T11:50:57;36.83;;;22.63;;
12603;SDS011;6367;52.508;13.284;2024-01-10T11:53:39;36.17;;;20.15;;
12603;SDS011;6367;52.508;13.284;2024-01-10T11:56:11;39.57;;;20.57;;
12603;SDS011;6367;52.508;13.284;2024-01-10T12:01:33;39.73;;;22.27;;
12603;SDS011;6367;52.508;13.284;2024-01-10T12:04:00;34.87;;;21.33;;
12603;SDS011;6367;52.508;13.284;2024-01-10T12:06:28;38.73;;;21.17;;
12603;SDS011;6367;52.508;13.284;2024-01-10T12:08:55;34.43;;;22.90;;
12603;SDS011;6367;52.508;13.284;2024-01-10T12:11:20;37.80;;;20.13;;
12603;SDS011;6367;52.508;13.284;2024-01-10T12:13:47;36.10;;;20.23;;
12603;SDS011;6367;52.508;13.284;2024-01-10T12:16:13;36.97;;;22.20;;
12603;SDS011;6367;52.508;13.284;2024-01-10T12:18:39;39.43;;;22.03;;
12603;SDS011;6367;52.508;13.284;2024-01-10T12:21:05;32.90;;;20.50;;
12603;SDS011;6367;52.508;13.284;2024-01-10T12:23:33;35.40;;;20.30;;
12603;SDS011;6367;52.508;13.284;2024-01-10T12:26:03;29.93;;;19.57;;
12603;SDS011;6367;52.508;13.284;2024-01-10T12:28:33;31.17;;;18.67;;
12603;SDS011;6367;52.508;13.284;2024-01-10T12:30:59;30.10;;;18.70;;
12603;SDS011;6367;52.508;13.284;2024-01-10T12:33:25;31.37;;;18.80;;
12603;SDS011;6367;52.508;13.284;2024-01-10T12:36:07;31.83;;;18.60;;
12603;SDS011;6367;52.508;13.284;2024-01-10T12:38:34;30.60;;;19.03;;
12603;SDS011;6367;52.508;13.284;2024-01-10T12:41:01;32.50;;;18.90;;
12603;SDS011;6367;52.508;13.284;2024-01-10T12:43:27;26.43;;;17.20;;
12603;SDS011;6367;52.508;13.284;2024-01-10T12:46:11;30.27;;;19.43;;
12603;SDS011;6367;52.508;13.284;2024-01-10T12:48:37;35.73;;;21.37;;
12603;SDS011;6367;52.508;13.284;2024-01-10T12:51:10;31.57;;;19.30;;
12603;SDS011;6367;52.508;13.284;2024-01-10T12:56:07;30.17;;;18.47;;
12603;SDS011;6367;52.508;13.284;2024-01-10T12:58:34;35.87;;;21.43;;
12603;SDS011;6367;52.508;13.284;2024-01-10T13:01:04;27.93;;;17.83;;
12603;SDS011;6367;52.508;13.284;2024-01-10T13:03:30;36.27;;;19.83;;
12603;SDS011;6367;52.508;13.284;2024-01-10T13:05:56;30.60;;;18.90;;
12603;SDS011;6367;52.508;13.284;2024-01-10T13:08:23;33.07;;;19.67;;
12603;SDS011;6367;52.508;13.284;2024-01-10T13:10:49;32.33;;;19.40;;
12603;SDS011;6367;52.508;13.284;2024-01-10T13:13:15;28.50;;;18.17;;
12603;SDS011;6367;52.508;13.284;2024-01-10T13:15:42;29.10;;;18.90;;
12603;SDS011;6367;52.508;13.284;2024-01-10T13:18:10;34.33;;;19.23;;
12603;SDS011;6367;52.508;13.284;2024-01-10T13:20:36;32.37;;;19.67;;
12603;SDS011;6367;52.508;13.284;2024-01-10T13:23:03;32.63;;;19.80;;
12603;SDS011;6367;52.508;13.284;2024-01-10T13:25:29;31.73;;;18.70;;
12603;SDS011;6367;52.508;13.284;2024-01-10T13:27:55;35.90;;;20.77;;
12603;SDS011;6367;52.508;13.284;2024-01-10T13:30:22;28.83;;;18.20;;
12603;SDS011;6367;52.508;13.284;2024-01-10T13:32:48;33.17;;;20.10;;
12603;SDS011;6367;52.508;13.284;2024-01-10T13:35:14;31.83;;;20.50;;
12603;SDS011;6367;52.508;13.284;2024-01-10T13:37:41;41.77;;;22.70;;
12603;SDS011;6367;52.508;13.284;2024-01-10T13:40:07;40.50;;;23.83;;
12603;SDS011;6367;52.508;13.284;2024-01-10T13:42:35;32.70;;;22.10;;
12603;SDS011;6367;52.508;13.284;2024-01-10T13:45:03;36.70;;;23.00;;
12603;SDS011;6367;52.508;13.284;2024-01-10T13:47:30;34.53;;;22.43;;
12603;SDS011;6367;52.508;13.284;2024-01-10T13:49:56;41.30;;;23.40;;
12603;SDS011;6367;52.508;13.284;2024-01-10T13:52:22;34.77;;;21.20;;
12603;SDS011;6367;52.508;13.284;2024-01-10T13:54:47;36.80;;;23.17;;
12603;SDS011;6367;52.508;13.284;2024-01-10T13:57:13;37.53;;;21.67;;
12603;SDS011;6367;52.508;13.284;2024-01-10T13:59:39;35.00;;;22.33;;
12603;SDS011;6367;52.508;13.284;2024-01-10T14:02:04;40.43;;;22.80;;
12603;SDS011;6367;52.508;13.284;2024-01-10T14:04:31;37.47;;;23.13;;
12603;SDS011;6367;52.508;13.284;2024-01-10T14:06:56;33.77;;;20.87;;
12603;SDS011;6367;52.508;13.284;2024-01-10T14:09:22;29.53;;;19.67;;
12603;SDS011;6367;52.508;13.284;2024-01-10T14:11:48;38.00;;;23.10;;
12603;SDS011;6367;52.508;13.284;2024-01-10T14:14:15;34.27;;;21.40;;
12603;SDS011;6367;52.508;13.284;2024-01-10T14:16:41;30.93;;;20.40;;
12603;SDS011;6367;52.508;13.284;2024-01-10T14:19:07;41.10;;;22.90;;
12603;SDS011;6367;52.508;13.284;2024-01-10T14:21:32;35.83;;;21.47;;
12603;SDS011;6367;52.508;13.284;2024-01-10T14:23:58;38.63;;;22.60;;
12603;SDS011;6367;52.508;13.284;2024-01-10T14:26:24;34.70;;;21.30;;
12603;SDS011;6367;52.508;13.284;2024-01-10T14:28:51;42.37;;;23.30;;
12603;SDS011;6367;52.508;13.284;2024-01-10T14:31:20;37.60;;;22.90;;